sensor_id;sensor_type;location;lat;lon;timestamp;P1;durP1;ratioP1;P2;durP2;ratioP2
5454;SDS011;2750;49.050;9.250;2022-08-11T00:01:43;3.27;;;2.97;;
5454;SDS011;2750;49.050;9.250;2022-08-11T00:06:48;3.30;;;2.93;;
5454;SDS011;2750;49.050;9.250;2022-08-11T00:11:51;3.63;;;3.03;;
5454;SDS011;2750;49.050;9.250;2022-08-11T00:16:57;4.30;;;3.37;;
5454;SDS011;2750;49.050;9.250;2022-08-11T00:22:02;4.97;;;3.63;;
5454;SDS011;2750;49.050;9.250;2022-08-11T00:27:05;4.47;;;3.23;;
5454;SDS011;2750;49.050;9.250;2022-08-11T00:32:07;3.63;;;3.23;;
5454;SDS011;2750;49.050;9.250;2022-08-11T00:37:17;4.67;;;3.00;;
5454;SDS011;2750;49.050;9.250;2022-08-11T00:42:25;5.13;;;3.13;;
5454;SDS011;2750;49.050;9.250;2022-08-11T00:47:47;5.20;;;3.10;;
5454;SDS011;2750;49.050;9.250;2022-08-11T00:53:02;3.40;;;3.10;;
5454;SDS011;2750;49.050;9.250;2022-08-11T01:03:53;5.60;;;3.40;;
5454;SDS011;2750;49.050;9.250;2022-08-11T01:15:01;3.47;;;3.13;;
5454;SDS011;2750;49.050;9.250;2022-08-11T01:20:46;5.90;;;3.40;;
5454;SDS011;2750;49.050;9.250;2022-08-11T01:26:43;3.47;;;3.17;;
5454;SDS011;2750;49.050;9.250;2022-08-11T01:32:30;2.93;;;2.70;;
5454;SDS011;2750;49.050;9.250;2022-08-11T01:38:14;3.47;;;3.17;;
5454;SDS011;2750;49.050;9.250;2022-08-11T01:49:32;8.33;;;3.77;;
5454;SDS011;2750;49.050;9.250;2022-08-11T01:54:42;5.83;;;3.07;;
5454;SDS011;2750;49.050;9.250;2022-08-11T01:59:50;3.37;;;3.07;;
5454;SDS011;2750;49.050;9.250;2022-08-11T02:05:04;3.63;;;3.00;;
5454;SDS011;2750;49.050;9.250;2022-08-11T02:10:20;3.60;;;2.90;;
5454;SDS011;2750;49.050;9.250;2022-08-11T02:15:44;3.53;;;3.10;;
5454;SDS011;2750;49.050;9.250;2022-08-11T02:20:50;3.43;;;2.80;;
5454;SDS011;2750;49.050;9.250;2022-08-11T02:26:17;3.20;;;2.90;;
5454;SDS011;2750;49.050;9.250;2022-08-11T02:31:28;3.43;;;2.90;;
5454;SDS011;2750;49.050;9.250;2022-08-11T02:37:00;3.40;;;2.80;;
5454;SDS011;2750;49.050;9.250;2022-08-11T02:42:19;3.73;;;3.43;;
5454;SDS011;2750;49.050;9.250;2022-08-11T02:47:30;7.93;;;3.27;;
5454;SDS011;2750;49.050;9.250;2022-08-11T02:52:40;3.43;;;3.13;;
5454;SDS011;2750;49.050;9.250;2022-08-11T02:57:50;4.03;;;2.93;;
5454;SDS011;2750;49.050;9.250;2022-08-11T03:02:59;5.03;;;3.37;;
5454;SDS011;2750;49.050;9.250;2022-08-11T03:08:19;5.13;;;2.97;;
5454;SDS011;2750;49.050;9.250;2022-08-11T03:13:30;5.73;;;3.20;;
5454;SDS011;2750;49.050;9.250;2022-08-11T03:19:00;3.73;;;3.33;;
5454;SDS011;2750;49.050;9.250;2022-08-11T03:24:13;3.37;;;3.07;;
5454;SDS011;2750;49.050;9.250;2022-08-11T03:29:22;4.97;;;3.50;;
5454;SDS011;2750;49.050;9.250;2022-08-11T03:34:32;2.93;;;2.73;;
5454;SDS011;2750;49.050;9.250;2022-08-11T03:39:44;4.80;;;3.53;;
5454;SDS011;2750;49.050;9.250;2022-08-11T03:45:04;3.37;;;3.00;;
5454;SDS011;2750;49.050;9.250;2022-08-11T03:50:21;4.70;;;3.30;;
5454;SDS011;2750;49.050;9.250;2022-08-11T03:55:32;3.70;;;3.40;;
5454;SDS011;2750;49.050;9.250;2022-08-11T04:12:26;11.60;;;9.73;;
5454;SDS011;2750;49.050;9.250;2022-08-11T04:18:02;8.40;;;6.03;;
5454;SDS011;2750;49.050;9.250;2022-08-11T04:23:40;7.83;;;6.57;;
5454;SDS011;2750;49.050;9.250;2022-08-11T04:29:09;5.20;;;4.63;;
5454;SDS011;2750;49.050;9.250;2022-08-11T04:34:31;6.93;;;5.53;;
5454;SDS011;2750;49.050;9.250;2022-08-11T04:39:45;6.50;;;5.57;;
5454;SDS011;2750;49.050;9.250;2022-08-11T04:50:49;7.97;;;4.80;;
5454;SDS011;2750;49.050;9.250;2022-08-11T04:56:20;9.40;;;5.27;;
5454;SDS011;2750;49.050;9.250;2022-08-11T05:01:49;6.47;;;4.83;;
5454;SDS011;2750;49.050;9.250;2022-08-11T05:07:16;5.60;;;4.93;;
5454;SDS011;2750;49.050;9.250;2022-08-11T05:12:39;7.30;;;5.07;;
5454;SDS011;2750;49.050;9.250;2022-08-11T05:17:46;6.23;;;4.50;;
5454;SDS011;2750;49.050;9.250;2022-08-11T05:23:16;7.90;;;5.00;;
5454;SDS011;2750;49.050;9.250;2022-08-11T05:28:45;8.53;;;4.90;;
5454;SDS011;2750;49.050;9.250;2022-08-11T05:34:10;11.53;;;5.43;;
5454;SDS011;2750;49.050;9.250;2022-08-11T05:39:40;7.28;;;5.03;;
5454;SDS011;2750;49.050;9.250;2022-08-11T05:45:04;7.93;;;4.43;;
5454;SDS011;2750;49.050;9.250;2022-08-11T05:50:30;9.73;;;4.50;;
5454;SDS011;2750;49.050;9.250;2022-08-11T05:55:50;6.22;;;4.28;;
5454;SDS011;2750;49.050;9.250;2022-08-11T06:01:10;9.32;;;4.57;;
5454;SDS011;2750;49.050;9.250;2022-08-11T06:06:14;12.82;;;4.57;;
5454;SDS011;2750;49.050;9.250;2022-08-11T06:11:17;11.73;;;4.90;;
5454;SDS011;2750;49.050;9.250;2022-08-11T06:16:20;8.73;;;4.78;;
5454;SDS011;2750;49.050;9.250;2022-08-11T06:21:25;6.95;;;4.10;;
5454;SDS011;2750;49.050;9.250;2022-08-11T06:26:28;9.85;;;3.65;;
5454;SDS011;2750;49.050;9.250;2022-08-11T06:31:30;4.82;;;3.70;;
5454;SDS011;2750;49.050;9.250;2022-08-11T06:36:34;5.65;;;3.80;;
5454;SDS011;2750;49.050;9.250;2022-08-11T06:41:45;5.38;;;4.40;;
5454;SDS011;2750;49.050;9.250;2022-08-11T06:46:52;6.53;;;4.10;;
5454;SDS011;2750;49.050;9.250;2022-08-11T06:52:00;6.72;;;3.65;;
5454;SDS011;2750;49.050;9.250;2022-08-11T06:57:04;4.43;;;4.00;;
5454;SDS011;2750;49.050;9.250;2022-08-11T07:02:30;4.38;;;3.97;;
5454;SDS011;2750;49.050;9.250;2022-08-11T07:07:44;4.63;;;4.10;;
5454;SDS011;2750;49.050;9.250;2022-08-11T07:13:34;4.43;;;3.85;;
5454;SDS011;2750;49.050;9.250;2022-08-11T07:18:56;4.18;;;3.78;;
5454;SDS011;2750;49.050;9.250;2022-08-11T07:24:20;4.82;;;4.38;;
5454;SDS011;2750;49.050;9.250;2022-08-11T07:29:45;4.97;;;3.92;;
5454;SDS011;2750;49.050;9.250;2022-08-11T07:34:50;4.43;;;3.80;;
5454;SDS011;2750;49.050;9.250;2022-08-11T07:39:57;4.68;;;3.55;;
5454;SDS011;2750;49.050;9.250;2022-08-11T07:45:02;6.75;;;3.65;;
5454;SDS011;2750;49.050;9.250;2022-08-11T07:50:24;5.38;;;3.80;;
5454;SDS011;2750;49.050;9.250;2022-08-11T07:55:43;3.58;;;3.28;;
5454;SDS011;2750;49.050;9.250;2022-08-11T08:00:52;5.05;;;3.53;;
5454;SDS011;2750;49.050;9.250;2022-08-11T08:06:13;3.78;;;3.47;;
5454;SDS011;2750;49.050;9.250;2022-08-11T08:11:32;3.88;;;3.55;;
5454;SDS011;2750;49.050;9.250;2022-08-11T08:16:53;3.70;;;3.22;;
5454;SDS011;2750;49.050;9.250;2022-08-11T08:22:14;3.85;;;3.45;;
5454;SDS011;2750;49.050;9.250;2022-08-11T08:27:17;4.07;;;3.70;;
5454;SDS011;2750;49.050;9.250;2022-08-11T08:32:22;3.97;;;3.53;;
5454;SDS011;2750;49.050;9.250;2022-08-11T08:37:26;3.30;;;3.00;;
5454;SDS011;2750;49.050;9.250;2022-08-11T08:42:29;3.65;;;3.30;;
5454;SDS011;2750;49.050;9.250;2022-08-11T08:47:35;4.88;;;3.60;;
5454;SDS011;2750;49.050;9.250;2022-08-11T08:52:41;6.32;;;3.33;;
5454;SDS011;2750;49.050;9.250;2022-08-11T08:57:47;3.90;;;2.90;;
5454;SDS011;2750;49.050;9.250;2022-08-11T09:02:52;3.70;;;3.33;;
5454;SDS011;2750;49.050;9.250;2022-08-11T09:07:54;5.20;;;3.47;;
5454;SDS011;2750;49.050;9.250;2022-08-11T09:12:57;3.50;;;3.30;;
5454;SDS011;2750;49.050;9.250;2022-08-11T09:18:01;4.95;;;2.90;;
5454;SDS011;2750;49.050;9.250;2022-08-11T09:23:06;2.70;;;2.45;;
5454;SDS011;2750;49.050;9.250;2022-08-11T09:28:26;3.53;;;2.88;;
5454;SDS011;2750;49.050;9.250;2022-08-11T09:33:31;2.97;;;2.78;;
5454;SDS011;2750;49.050;9.250;2022-08-11T09:38:35;2.90;;;2.70;;
5454;SDS011;2750;49.050;9.250;2022-08-11T09:43:56;3.38;;;3.08;;
5454;SDS011;2750;49.050;9.250;2022-08-11T09:49:19;3.53;;;2.80;;
5454;SDS011;2750;49.050;9.250;2022-08-11T09:54:21;3.63;;;2.33;;
5454;SDS011;2750;49.050;9.250;2022-08-11T09:59:24;2.83;;;2.63;;
5454;SDS011;2750;49.050;9.250;2022-08-11T10:04:32;2.53;;;2.40;;
5454;SDS011;2750;49.050;9.250;2022-08-11T10:09:38;3.03;;;2.70;;
5454;SDS011;2750;49.050;9.250;2022-08-11T10:14:44;5.22;;;2.85;;
5454;SDS011;2750;49.050;9.250;2022-08-11T10:20:07;2.63;;;2.42;;
5454;SDS011;2750;49.050;9.250;2022-08-11T10:25:10;3.20;;;2.50;;
5454;SDS011;2750;49.050;9.250;2022-08-11T10:30:31;4.93;;;2.72;;
5454;SDS011;2750;49.050;9.250;2022-08-11T10:35:52;3.35;;;2.75;;
5454;SDS011;2750;49.050;9.250;2022-08-11T10:40:56;4.93;;;2.38;;
5454;SDS011;2750;49.050;9.250;2022-08-11T10:46:15;2.95;;;2.67;;
5454;SDS011;2750;49.050;9.250;2022-08-11T10:51:36;3.63;;;2.63;;
5454;SDS011;2750;49.050;9.250;2022-08-11T10:56:55;3.78;;;2.90;;
5454;SDS011;2750;49.050;9.250;2022-08-11T11:02:15;3.70;;;2.80;;
5454;SDS011;2750;49.050;9.250;2022-08-11T11:07:21;4.55;;;2.70;;
5454;SDS011;2750;49.050;9.250;2022-08-11T11:12:28;4.15;;;2.53;;
5454;SDS011;2750;49.050;9.250;2022-08-11T11:17:52;4.38;;;2.42;;
5454;SDS011;2750;49.050;9.250;2022-08-11T11:23:02;2.58;;;2.38;;
5454;SDS011;2750;49.050;9.250;2022-08-11T11:28:12;3.38;;;2.95;;
5454;SDS011;2750;49.050;9.250;2022-08-11T11:33:29;2.97;;;2.67;;
5454;SDS011;2750;49.050;9.250;2022-08-11T11:38:43;3.00;;;2.42;;
5454;SDS011;2750;49.050;9.250;2022-08-11T11:43:45;2.95;;;2.33;;
5454;SDS011;2750;49.050;9.250;2022-08-11T11:48:48;4.65;;;2.55;;
5454;SDS011;2750;49.050;9.250;2022-08-11T11:53:51;2.85;;;2.55;;
5454;SDS011;2750;49.050;9.250;2022-08-11T11:58:53;2.50;;;2.30;;
5454;SDS011;2750;49.050;9.250;2022-08-11T12:04:13;2.10;;;2.00;;
5454;SDS011;2750;49.050;9.250;2022-08-11T12:09:18;3.00;;;2.40;;
5454;SDS011;2750;49.050;9.250;2022-08-11T12:14:22;2.58;;;2.38;;
5454;SDS011;2750;49.050;9.250;2022-08-11T12:19:27;4.03;;;2.60;;
5454;SDS011;2750;49.050;9.250;2022-08-11T12:24:31;3.50;;;2.47;;
5454;SDS011;2750;49.050;9.250;2022-08-11T12:29:53;2.65;;;2.45;;
5454;SDS011;2750;49.050;9.250;2022-08-11T12:34:57;4.40;;;2.25;;
5454;SDS011;2750;49.050;9.250;2022-08-11T12:40:02;3.15;;;2.63;;
5454;SDS011;2750;49.050;9.250;2022-08-11T12:45:25;3.45;;;2.13;;
5454;SDS011;2750;49.050;9.250;2022-08-11T12:50:28;2.45;;;2.25;;
5454;SDS011;2750;49.050;9.250;2022-08-11T12:55:49;2.95;;;2.10;;
5454;SDS011;2750;49.050;9.250;2022-08-11T13:01:10;2.78;;;2.47;;
5454;SDS011;2750;49.050;9.250;2022-08-11T13:06:30;3.33;;;2.40;;
5454;SDS011;2750;49.050;9.250;2022-08-11T13:11:34;2.30;;;2.10;;
5454;SDS011;2750;49.050;9.250;2022-08-11T13:16:55;2.53;;;2.33;;
5454;SDS011;2750;49.050;9.250;2022-08-11T13:22:15;2.90;;;2.38;;
5454;SDS011;2750;49.050;9.250;2022-08-11T13:27:20;2.38;;;2.17;;
5454;SDS011;2750;49.050;9.250;2022-08-11T13:32:22;3.15;;;2.60;;
5454;SDS011;2750;49.050;9.250;2022-08-11T13:37:25;2.90;;;2.20;;
5454;SDS011;2750;49.050;9.250;2022-08-11T13:42:28;2.17;;;2.08;;
5454;SDS011;2750;49.050;9.250;2022-08-11T13:47:29;5.97;;;2.75;;
5454;SDS011;2750;49.050;9.250;2022-08-11T13:52:32;2.40;;;2.20;;
5454;SDS011;2750;49.050;9.250;2022-08-11T13:57:36;2.92;;;2.35;;
5454;SDS011;2750;49.050;9.250;2022-08-11T14:02:40;2.55;;;2.30;;
5454;SDS011;2750;49.050;9.250;2022-08-11T14:07:45;2.50;;;2.30;;
5454;SDS011;2750;49.050;9.250;2022-08-11T14:12:54;2.78;;;2.58;;
5454;SDS011;2750;49.050;9.250;2022-08-11T14:18:17;2.65;;;2.25;;
5454;SDS011;2750;49.050;9.250;2022-08-11T14:23:22;2.38;;;2.10;;
5454;SDS011;2750;49.050;9.250;2022-08-11T14:28:30;2.40;;;2.20;;
5454;SDS011;2750;49.050;9.250;2022-08-11T14:33:34;3.28;;;2.20;;
5454;SDS011;2750;49.050;9.250;2022-08-11T14:38:37;2.40;;;2.20;;
5454;SDS011;2750;49.050;9.250;2022-08-11T14:43:42;2.38;;;2.17;;
5454;SDS011;2750;49.050;9.250;2022-08-11T14:49:01;2.33;;;2.13;;
5454;SDS011;2750;49.050;9.250;2022-08-11T14:54:03;3.45;;;2.40;;
5454;SDS011;2750;49.050;9.250;2022-08-11T14:59:20;4.00;;;3.03;;
5454;SDS011;2750;49.050;9.250;2022-08-11T15:04:22;2.72;;;2.35;;
5454;SDS011;2750;49.050;9.250;2022-08-11T15:09:25;2.10;;;2.00;;
5454;SDS011;2750;49.050;9.250;2022-08-11T15:14:28;2.50;;;2.30;;
5454;SDS011;2750;49.050;9.250;2022-08-11T15:19:46;6.63;;;2.72;;
5454;SDS011;2750;49.050;9.250;2022-08-11T15:25:03;2.75;;;2.55;;
5454;SDS011;2750;49.050;9.250;2022-08-11T15:30:07;2.78;;;2.53;;
5454;SDS011;2750;49.050;9.250;2022-08-11T15:35:27;2.92;;;2.70;;
5454;SDS011;2750;49.050;9.250;2022-08-11T15:40:47;2.80;;;2.60;;
5454;SDS011;2750;49.050;9.250;2022-08-11T15:46:09;2.65;;;2.30;;
5454;SDS011;2750;49.050;9.250;2022-08-11T15:51:15;4.03;;;2.60;;
5454;SDS011;2750;49.050;9.250;2022-08-11T15:56:21;2.63;;;2.40;;
5454;SDS011;2750;49.050;9.250;2022-08-11T16:01:26;2.67;;;2.45;;
5454;SDS011;2750;49.050;9.250;2022-08-11T16:06:50;2.97;;;2.78;;
5454;SDS011;2750;49.050;9.250;2022-08-11T16:11:55;2.58;;;2.38;;
5454;SDS011;2750;49.050;9.250;2022-08-11T16:17:02;3.17;;;2.97;;
5454;SDS011;2750;49.050;9.250;2022-08-11T16:22:07;2.60;;;2.40;;
5454;SDS011;2750;49.050;9.250;2022-08-11T16:27:11;2.53;;;2.33;;
5454;SDS011;2750;49.050;9.250;2022-08-11T16:32:17;3.05;;;2.78;;
5454;SDS011;2750;49.050;9.250;2022-08-11T16:37:22;2.92;;;2.60;;
5454;SDS011;2750;49.050;9.250;2022-08-11T16:42:43;4.03;;;2.70;;
5454;SDS011;2750;49.050;9.250;2022-08-11T16:48:06;3.30;;;3.10;;
5454;SDS011;2750;49.050;9.250;2022-08-11T16:53:09;4.35;;;3.10;;
5454;SDS011;2750;49.050;9.250;2022-08-11T16:58:10;4.38;;;3.10;;
5454;SDS011;2750;49.050;9.250;2022-08-11T17:03:32;3.25;;;3.05;;
5454;SDS011;2750;49.050;9.250;2022-08-11T17:08:52;5.60;;;3.65;;
5454;SDS011;2750;49.050;9.250;2022-08-11T17:14:12;4.35;;;3.80;;
5454;SDS011;2750;49.050;9.250;2022-08-11T17:19:20;6.18;;;3.88;;
5454;SDS011;2750;49.050;9.250;2022-08-11T17:24:24;3.78;;;3.47;;
5454;SDS011;2750;49.050;9.250;2022-08-11T17:29:28;4.50;;;4.07;;
5454;SDS011;2750;49.050;9.250;2022-08-11T17:34:33;4.32;;;3.90;;
5454;SDS011;2750;49.050;9.250;2022-08-11T17:39:53;4.88;;;4.10;;
5454;SDS011;2750;49.050;9.250;2022-08-11T17:44:56;4.32;;;3.97;;
5454;SDS011;2750;49.050;9.250;2022-08-11T17:50:18;3.65;;;3.20;;
5454;SDS011;2750;49.050;9.250;2022-08-11T17:55:20;4.32;;;3.78;;
5454;SDS011;2750;49.050;9.250;2022-08-11T18:00:40;4.10;;;3.30;;
5454;SDS011;2750;49.050;9.250;2022-08-11T18:05:45;3.83;;;3.42;;
5454;SDS011;2750;49.050;9.250;2022-08-11T18:10:48;5.10;;;3.50;;
5454;SDS011;2750;49.050;9.250;2022-08-11T18:16:08;6.10;;;3.55;;
5454;SDS011;2750;49.050;9.250;2022-08-11T18:21:29;4.13;;;3.60;;
5454;SDS011;2750;49.050;9.250;2022-08-11T18:26:49;3.63;;;3.33;;
5454;SDS011;2750;49.050;9.250;2022-08-11T18:32:10;4.40;;;3.53;;
5454;SDS011;2750;49.050;9.250;2022-08-11T18:37:33;5.78;;;3.25;;
5454;SDS011;2750;49.050;9.250;2022-08-11T18:42:56;3.72;;;3.40;;
5454;SDS011;2750;49.050;9.250;2022-08-11T18:48:19;5.38;;;2.90;;
5454;SDS011;2750;49.050;9.250;2022-08-11T18:53:43;3.63;;;3.28;;
5454;SDS011;2750;49.050;9.250;2022-08-11T18:59:12;3.90;;;3.05;;
5454;SDS011;2750;49.050;9.250;2022-08-11T19:04:32;4.28;;;3.17;;
5454;SDS011;2750;49.050;9.250;2022-08-11T19:09:53;7.38;;;3.60;;
5454;SDS011;2750;49.050;9.250;2022-08-11T19:15:13;3.60;;;3.30;;
5454;SDS011;2750;49.050;9.250;2022-08-11T19:20:34;6.30;;;5.10;;
5454;SDS011;2750;49.050;9.250;2022-08-11T19:25:56;4.32;;;3.13;;
5454;SDS011;2750;49.050;9.250;2022-08-11T19:31:17;8.20;;;3.45;;
5454;SDS011;2750;49.050;9.250;2022-08-11T19:36:37;3.55;;;3.10;;
5454;SDS011;2750;49.050;9.250;2022-08-11T19:41:58;5.22;;;3.45;;
5454;SDS011;2750;49.050;9.250;2022-08-11T19:47:19;5.67;;;2.97;;
5454;SDS011;2750;49.050;9.250;2022-08-11T19:52:39;5.33;;;3.00;;
5454;SDS011;2750;49.050;9.250;2022-08-11T19:58:00;3.27;;;2.97;;
5454;SDS011;2750;49.050;9.250;2022-08-11T20:03:20;4.63;;;3.67;;
5454;SDS011;2750;49.050;9.250;2022-08-11T20:08:40;6.30;;;3.00;;
5454;SDS011;2750;49.050;9.250;2022-08-11T20:14:03;4.80;;;3.93;;
5454;SDS011;2750;49.050;9.250;2022-08-11T20:19:23;4.53;;;3.40;;
5454;SDS011;2750;49.050;9.250;2022-08-11T20:24:44;5.40;;;3.20;;
5454;SDS011;2750;49.050;9.250;2022-08-11T20:30:07;4.23;;;2.83;;
5454;SDS011;2750;49.050;9.250;2022-08-11T20:35:26;4.63;;;2.90;;
5454;SDS011;2750;49.050;9.250;2022-08-11T20:40:46;5.23;;;3.10;;
5454;SDS011;2750;49.050;9.250;2022-08-11T20:46:07;3.80;;;3.30;;
5454;SDS011;2750;49.050;9.250;2022-08-11T20:51:28;5.67;;;3.20;;
5454;SDS011;2750;49.050;9.250;2022-08-11T20:56:47;3.00;;;2.70;;
5454;SDS011;2750;49.050;9.250;2022-08-11T21:02:08;3.17;;;2.60;;
5454;SDS011;2750;49.050;9.250;2022-08-11T21:07:30;3.07;;;2.63;;
5454;SDS011;2750;49.050;9.250;2022-08-11T21:12:51;5.10;;;3.13;;
5454;SDS011;2750;49.050;9.250;2022-08-11T21:18:13;3.40;;;3.10;;
5454;SDS011;2750;49.050;9.250;2022-08-11T21:23:34;4.17;;;3.20;;
5454;SDS011;2750;49.050;9.250;2022-08-11T21:28:57;2.77;;;2.53;;
5454;SDS011;2750;49.050;9.250;2022-08-11T21:34:21;4.60;;;2.90;;
5454;SDS011;2750;49.050;9.250;2022-08-11T21:39:42;2.70;;;2.50;;
5454;SDS011;2750;49.050;9.250;2022-08-11T21:45:03;5.83;;;2.90;;
5454;SDS011;2750;49.050;9.250;2022-08-11T21:50:26;3.80;;;2.70;;
5454;SDS011;2750;49.050;9.250;2022-08-11T21:55:45;3.50;;;2.80;;
5454;SDS011;2750;49.050;9.250;2022-08-11T22:01:06;3.43;;;2.67;;
5454;SDS011;2750;49.050;9.250;2022-08-11T22:06:27;5.00;;;2.90;;
5454;SDS011;2750;49.050;9.250;2022-08-11T22:11:48;3.47;;;2.90;;
5454;SDS011;2750;49.050;9.250;2022-08-11T22:17:07;4.93;;;2.90;;
5454;SDS011;2750;49.050;9.250;2022-08-11T22:22:28;3.30;;;2.83;;
5454;SDS011;2750;49.050;9.250;2022-08-11T22:27:48;2.77;;;2.57;;
5454;SDS011;2750;49.050;9.250;2022-08-11T22:33:07;4.30;;;2.60;;
5454;SDS011;2750;49.050;9.250;2022-08-11T22:38:28;2.57;;;2.37;;
5454;SDS011;2750;49.050;9.250;2022-08-11T22:43:50;3.83;;;2.60;;
5454;SDS011;2750;49.050;9.250;2022-08-11T22:49:08;2.70;;;2.50;;
5454;SDS011;2750;49.050;9.250;2022-08-11T22:54:31;4.30;;;3.00;;
5454;SDS011;2750;49.050;9.250;2022-08-11T22:59:52;2.60;;;2.40;;
5454;SDS011;2750;49.050;9.250;2022-08-11T23:05:12;4.03;;;2.83;;
5454;SDS011;2750;49.050;9.250;2022-08-11T23:10:33;3.80;;;2.83;;
5454;SDS011;2750;49.050;9.250;2022-08-11T23:15:52;3.63;;;2.57;;
5454;SDS011;2750;49.050;9.250;2022-08-11T23:21:13;2.97;;;2.70;;
5454;SDS011;2750;49.050;9.250;2022-08-11T23:26:34;2.93;;;2.70;;
5454;SDS011;2750;49.050;9.250;2022-08-11T23:31:55;3.60;;;2.67;;
5454;SDS011;2750;49.050;9.250;2022-08-11T23:37:15;2.87;;;2.40;;
5454;SDS011;2750;49.050;9.250;2022-08-11T23:42:38;2.83;;;2.63;;
5454;SDS011;2750;49.050;9.250;2022-08-11T23:47:58;5.00;;;2.80;;
5454;SDS011;2750;49.050;9.250;2022-08-11T23:53:19;2.63;;;2.43;;
5454;SDS011;2750;49.050;9.250;2022-08-11T23:58:39;3.67;;;3.20;;
